sensor_id;sensor_type;location;lat;lon;timestamp;pressure;altitude;pressure_sealevel;temperature;humidity
40490;BME280;26196;52.302;10.572;2022-11-14T00:01:58;101137.09;;;12.09;54.87
40490;BME280;26196;52.302;10.572;2022-11-14T00:05:58;101138.03;;;12.07;55.07
40490;BME280;26196;52.302;10.572;2022-11-14T00:09:59;101132.00;;;12.03;55.00
40490;BME280;26196;52.302;10.572;2022-11-14T00:14:00;101125.03;;;12.02;54.86
40490;BME280;26196;52.302;10.572;2022-11-14T00:18:00;101121.59;;;12.00;54.80
40490;BME280;26196;52.302;10.572;2022-11-14T00:22:00;101112.13;;;11.91;54.62
40490;BME280;26196;52.302;10.572;2022-11-14T00:26:01;101105.19;;;11.90;53.76
40490;BME280;26196;52.302;10.572;2022-11-14T00:30:01;101099.16;;;11.87;55.08
40490;BME280;26196;52.302;10.572;2022-11-14T00:34:01;101093.94;;;11.83;55.01
40490;BME280;26196;52.302;10.572;2022-11-14T00:38:02;101099.19;;;11.83;54.30
40490;BME280;26196;52.302;10.572;2022-11-14T00:42:02;101089.63;;;11.81;54.94
40490;BME280;26196;52.302;10.572;2022-11-14T00:46:02;101090.44;;;11.83;55.24
40490;BME280;26196;52.302;10.572;2022-11-14T00:50:04;101075.53;;;11.85;55.51
40490;BME280;26196;52.302;10.572;2022-11-14T00:54:04;101065.13;;;11.82;55.57
40490;BME280;26196;52.302;10.572;2022-11-14T00:58:05;101074.66;;;11.86;55.11
40490;BME280;26196;52.302;10.572;2022-11-14T01:02:05;101070.25;;;11.88;55.48
40490;BME280;26196;52.302;10.572;2022-11-14T01:06:07;101058.91;;;11.88;55.06
40490;BME280;26196;52.302;10.572;2022-11-14T01:10:08;101063.22;;;11.89;54.72
40490;BME280;26196;52.302;10.572;2022-11-14T01:14:09;101052.84;;;11.84;55.48
40490;BME280;26196;52.302;10.572;2022-11-14T01:18:11;101059.75;;;11.88;55.04
40490;BME280;26196;52.302;10.572;2022-11-14T01:22:11;101038.13;;;11.78;55.08
40490;BME280;26196;52.302;10.572;2022-11-14T01:26:13;101047.53;;;11.86;55.33
40490;BME280;26196;52.302;10.572;2022-11-14T01:30:14;101052.78;;;11.86;55.25
40490;BME280;26196;52.302;10.572;2022-11-14T01:34:14;101046.75;;;11.83;55.47
40490;BME280;26196;52.302;10.572;2022-11-14T01:38:14;101047.63;;;11.82;55.29
40490;BME280;26196;52.302;10.572;2022-11-14T01:42:15;101037.19;;;11.81;55.40
40490;BME280;26196;52.302;10.572;2022-11-14T01:46:25;101027.50;;;11.83;55.49
40490;BME280;26196;52.302;10.572;2022-11-14T01:50:27;101024.88;;;11.83;54.94
40490;BME280;26196;52.302;10.572;2022-11-14T01:54:32;101001.34;;;11.80;55.37
40490;BME280;26196;52.302;10.572;2022-11-14T01:58:36;101007.34;;;11.85;54.82
40490;BME280;26196;52.302;10.572;2022-11-14T02:02:39;100994.28;;;11.83;55.51
40490;BME280;26196;52.302;10.572;2022-11-14T02:06:40;100992.63;;;11.79;54.94
40490;BME280;26196;52.302;10.572;2022-11-14T02:10:41;100987.38;;;11.79;54.96
40490;BME280;26196;52.302;10.572;2022-11-14T02:14:43;100989.03;;;11.83;55.15
40490;BME280;26196;52.302;10.572;2022-11-14T02:18:44;100988.22;;;11.81;55.13
40490;BME280;26196;52.302;10.572;2022-11-14T02:22:44;100985.72;;;11.75;55.24
40490;BME280;26196;52.302;10.572;2022-11-14T02:26:45;100985.66;;;11.78;55.02
40490;BME280;26196;52.302;10.572;2022-11-14T02:30:45;100984.16;;;11.68;55.24
40490;BME280;26196;52.302;10.572;2022-11-14T02:34:45;100983.28;;;11.68;55.33
40490;BME280;26196;52.302;10.572;2022-11-14T02:38:46;100972.00;;;11.64;55.25
40490;BME280;26196;52.302;10.572;2022-11-14T02:42:46;100974.72;;;11.59;54.74
40490;BME280;26196;52.302;10.572;2022-11-14T02:46:46;100970.28;;;11.63;55.36
40490;BME280;26196;52.302;10.572;2022-11-14T02:50:47;100973.88;;;11.59;55.25
40490;BME280;26196;52.302;10.572;2022-11-14T02:54:48;100971.41;;;11.53;55.60
40490;BME280;26196;52.302;10.572;2022-11-14T02:58:48;100962.63;;;11.54;55.19
40490;BME280;26196;52.302;10.572;2022-11-14T03:02:49;100967.97;;;11.51;55.33
40490;BME280;26196;52.302;10.572;2022-11-14T03:06:49;100965.19;;;11.57;56.19
40490;BME280;26196;52.302;10.572;2022-11-14T03:10:49;100962.63;;;11.55;56.19
40490;BME280;26196;52.302;10.572;2022-11-14T03:14:50;100972.34;;;11.50;55.85
40490;BME280;26196;52.302;10.572;2022-11-14T03:18:50;100965.53;;;11.43;56.07
40490;BME280;26196;52.302;10.572;2022-11-14T03:22:50;100961.19;;;11.42;56.04
40490;BME280;26196;52.302;10.572;2022-11-14T03:26:51;100961.88;;;11.49;56.11
40490;BME280;26196;52.302;10.572;2022-11-14T03:30:51;100957.44;;;11.52;56.02
40490;BME280;26196;52.302;10.572;2022-11-14T03:34:51;100948.84;;;11.46;56.51
40490;BME280;26196;52.302;10.572;2022-11-14T03:38:52;100947.09;;;11.46;56.34
40490;BME280;26196;52.302;10.572;2022-11-14T03:42:52;100939.41;;;11.38;56.77
40490;BME280;26196;52.302;10.572;2022-11-14T03:46:52;100928.94;;;11.38;56.20
40490;BME280;26196;52.302;10.572;2022-11-14T03:50:53;100930.59;;;11.43;56.34
40490;BME280;26196;52.302;10.572;2022-11-14T03:54:53;100930.59;;;11.43;56.18
40490;BME280;26196;52.302;10.572;2022-11-14T03:58:54;100914.84;;;11.43;55.81
40490;BME280;26196;52.302;10.572;2022-11-14T04:02:55;100920.06;;;11.44;56.55
40490;BME280;26196;52.302;10.572;2022-11-14T04:06:55;100911.31;;;11.44;56.45
40490;BME280;26196;52.302;10.572;2022-11-14T04:10:56;100904.47;;;11.39;56.74
40490;BME280;26196;52.302;10.572;2022-11-14T04:14:56;100901.84;;;11.39;56.41
40490;BME280;26196;52.302;10.572;2022-11-14T04:18:57;100895.75;;;11.37;56.28
40490;BME280;26196;52.302;10.572;2022-11-14T04:22:57;100890.66;;;11.31;56.79
40490;BME280;26196;52.302;10.572;2022-11-14T04:26:57;100888.78;;;11.36;59.38
40490;BME280;26196;52.302;10.572;2022-11-14T04:30:58;100893.13;;;11.73;58.36
40490;BME280;26196;52.302;10.572;2022-11-14T04:34:59;100891.84;;;11.54;57.77
40490;BME280;26196;52.302;10.572;2022-11-14T04:39:00;100888.66;;;11.43;57.34
40490;BME280;26196;52.302;10.572;2022-11-14T04:43:00;100875.69;;;11.36;57.45
40490;BME280;26196;52.302;10.572;2022-11-14T04:47:01;100880.31;;;11.25;56.75
40490;BME280;26196;52.302;10.572;2022-11-14T04:51:01;100866.56;;;11.17;57.17
40490;BME280;26196;52.302;10.572;2022-11-14T04:55:01;100877.81;;;11.21;57.52
40490;BME280;26196;52.302;10.572;2022-11-14T04:59:02;100868.31;;;11.16;58.40
40490;BME280;26196;52.302;10.572;2022-11-14T05:03:02;100863.03;;;11.18;57.96
40490;BME280;26196;52.302;10.572;2022-11-14T05:07:03;100862.91;;;11.24;58.46
40490;BME280;26196;52.302;10.572;2022-11-14T05:11:03;100853.38;;;11.20;58.25
40490;BME280;26196;52.302;10.572;2022-11-14T05:15:04;100837.88;;;11.11;57.94
40490;BME280;26196;52.302;10.572;2022-11-14T05:19:04;100841.28;;;11.14;57.99
40490;BME280;26196;52.302;10.572;2022-11-14T05:23:04;100849.25;;;11.10;58.49
40490;BME280;26196;52.302;10.572;2022-11-14T05:27:05;100839.78;;;11.04;57.47
40490;BME280;26196;52.302;10.572;2022-11-14T05:31:08;100842.38;;;11.06;57.95
40490;BME280;26196;52.302;10.572;2022-11-14T05:35:09;100851.59;;;11.21;59.35
40490;BME280;26196;52.302;10.572;2022-11-14T05:39:09;100854.22;;;11.21;59.82
40490;BME280;26196;52.302;10.572;2022-11-14T05:43:10;100840.44;;;11.12;59.40
40490;BME280;26196;52.302;10.572;2022-11-14T05:47:10;100843.06;;;11.14;59.33
40490;BME280;26196;52.302;10.572;2022-11-14T05:51:11;100839.56;;;11.13;59.04
40490;BME280;26196;52.302;10.572;2022-11-14T05:55:12;100843.94;;;11.13;58.89
40490;BME280;26196;52.302;10.572;2022-11-14T05:59:12;100834.94;;;11.23;57.43
40490;BME280;26196;52.302;10.572;2022-11-14T06:03:12;100844.56;;;11.23;59.87
40490;BME280;26196;52.302;10.572;2022-11-14T06:07:14;100841.19;;;11.53;61.58
40490;BME280;26196;52.302;10.572;2022-11-14T06:11:16;100833.47;;;11.81;60.03
40490;BME280;26196;52.302;10.572;2022-11-14T06:15:17;100835.53;;;12.01;58.00
40490;BME280;26196;52.302;10.572;2022-11-14T06:19:18;100819.03;;;11.98;57.01
40490;BME280;26196;52.302;10.572;2022-11-14T06:23:20;100810.34;;;11.96;56.49
40490;BME280;26196;52.302;10.572;2022-11-14T06:27:21;100815.16;;;12.11;56.22
40490;BME280;26196;52.302;10.572;2022-11-14T06:31:22;100817.84;;;12.10;57.15
40490;BME280;26196;52.302;10.572;2022-11-14T06:35:23;100806.47;;;12.09;56.38
40490;BME280;26196;52.302;10.572;2022-11-14T06:39:23;100802.69;;;12.19;56.10
40490;BME280;26196;52.302;10.572;2022-11-14T06:43:23;100803.81;;;12.11;56.28
40490;BME280;26196;52.302;10.572;2022-11-14T06:47:24;100806.75;;;12.00;56.12
40490;BME280;26196;52.302;10.572;2022-11-14T06:51:24;100812.22;;;11.92;56.64
40490;BME280;26196;52.302;10.572;2022-11-14T06:55:25;100809.75;;;11.86;56.31
40490;BME280;26196;52.302;10.572;2022-11-14T06:59:25;100822.06;;;11.82;56.68
40490;BME280;26196;52.302;10.572;2022-11-14T07:03:25;100824.03;;;11.74;56.01
40490;BME280;26196;52.302;10.572;2022-11-14T07:07:26;100829.06;;;11.82;56.96
40490;BME280;26196;52.302;10.572;2022-11-14T07:11:27;100826.41;;;11.83;57.02
40490;BME280;26196;52.302;10.572;2022-11-14T07:15:28;100832.28;;;11.93;57.34
40490;BME280;26196;52.302;10.572;2022-11-14T07:19:29;100823.75;;;11.87;56.40
40490;BME280;26196;52.302;10.572;2022-11-14T07:23:30;100800.13;;;11.87;56.25
40490;BME280;26196;52.302;10.572;2022-11-14T07:27:31;100811.34;;;11.92;55.81
40490;BME280;26196;52.302;10.572;2022-11-14T07:31:32;100816.44;;;11.96;55.48
40490;BME280;26196;52.302;10.572;2022-11-14T07:35:32;100813.88;;;11.95;55.64
40490;BME280;26196;52.302;10.572;2022-11-14T07:39:32;100831.91;;;11.74;55.68
40490;BME280;26196;52.302;10.572;2022-11-14T07:43:33;100836.59;;;11.63;55.24
40490;BME280;26196;52.302;10.572;2022-11-14T07:47:33;100822.81;;;11.55;55.50
40490;BME280;26196;52.302;10.572;2022-11-14T07:51:34;100837.06;;;11.45;55.01
40490;BME280;26196;52.302;10.572;2022-11-14T07:55:35;100835.31;;;11.44;55.09
40490;BME280;26196;52.302;10.572;2022-11-14T07:59:37;100831.94;;;11.38;55.32
40490;BME280;26196;52.302;10.572;2022-11-14T08:03:37;100832.88;;;11.36;55.69
40490;BME280;26196;52.302;10.572;2022-11-14T08:07:37;100825.75;;;11.43;56.06
40490;BME280;26196;52.302;10.572;2022-11-14T08:11:38;100823.06;;;11.44;56.09
40490;BME280;26196;52.302;10.572;2022-11-14T08:15:47;100829.09;;;11.48;55.81
40490;BME280;26196;52.302;10.572;2022-11-14T08:19:48;100818.75;;;11.42;56.23
40490;BME280;26196;52.302;10.572;2022-11-14T08:23:48;100824.75;;;11.47;56.69
40490;BME280;26196;52.302;10.572;2022-11-14T08:27:48;100821.25;;;11.48;56.46
40490;BME280;26196;52.302;10.572;2022-11-14T08:31:48;100817.88;;;11.43;56.39
40490;BME280;26196;52.302;10.572;2022-11-14T08:35:49;100806.53;;;11.42;56.58
40490;BME280;26196;52.302;10.572;2022-11-14T08:39:49;100822.28;;;11.41;56.27
40490;BME280;26196;52.302;10.572;2022-11-14T08:43:49;100809.22;;;11.39;56.61
40490;BME280;26196;52.302;10.572;2022-11-14T08:47:51;100794.38;;;11.39;56.90
40490;BME280;26196;52.302;10.572;2022-11-14T08:51:52;100791.75;;;11.39;57.08
40490;BME280;26196;52.302;10.572;2022-11-14T08:55:52;100789.00;;;11.44;57.13
40490;BME280;26196;52.302;10.572;2022-11-14T08:59:53;100779.44;;;11.42;56.82
40490;BME280;26196;52.302;10.572;2022-11-14T09:03:54;100785.44;;;11.47;57.12
40490;BME280;26196;52.302;10.572;2022-11-14T09:07:55;100779.41;;;11.43;57.46
40490;BME280;26196;52.302;10.572;2022-11-14T09:11:55;100776.81;;;11.42;57.27
40490;BME280;26196;52.302;10.572;2022-11-14T09:15:55;100784.78;;;11.38;57.18
40490;BME280;26196;52.302;10.572;2022-11-14T09:19:56;100788.22;;;11.41;57.32
40490;BME280;26196;52.302;10.572;2022-11-14T09:23:56;100774.19;;;11.43;57.63
40490;BME280;26196;52.302;10.572;2022-11-14T09:27:56;100774.09;;;11.46;57.60
40490;BME280;26196;52.302;10.572;2022-11-14T09:31:57;100753.97;;;11.47;57.31
40490;BME280;26196;52.302;10.572;2022-11-14T09:35:59;100761.72;;;11.51;57.26
40490;BME280;26196;52.302;10.572;2022-11-14T09:40:00;100747.72;;;11.52;57.53
40490;BME280;26196;52.302;10.572;2022-11-14T09:44:31;100747.66;;;11.55;57.44
40490;BME280;26196;52.302;10.572;2022-11-14T09:48:36;100726.66;;;11.55;57.93
40490;BME280;26196;52.302;10.572;2022-11-14T09:52:39;100719.56;;;11.59;57.29
40490;BME280;26196;52.302;10.572;2022-11-14T09:56:46;100707.28;;;11.61;57.16
40490;BME280;26196;52.302;10.572;2022-11-14T10:00:55;100685.38;;;11.64;57.35
40490;BME280;26196;52.302;10.572;2022-11-14T10:06:09;100675.63;;;11.67;57.28
40490;BME280;26196;52.302;10.572;2022-11-14T10:09:46;100684.34;;;11.68;58.29
40490;BME280;26196;52.302;10.572;2022-11-14T10:18:11;100707.09;;;11.67;58.18
40490;BME280;26196;52.302;10.572;2022-11-14T10:26:46;100707.00;;;11.70;58.37
40490;BME280;26196;52.302;10.572;2022-11-14T10:35:27;100699.94;;;11.74;59.14
40490;BME280;26196;52.302;10.572;2022-11-14T10:39:46;100698.16;;;11.74;58.19
40490;BME280;26196;52.302;10.572;2022-11-14T10:43:48;100684.94;;;11.77;58.25
40490;BME280;26196;52.302;10.572;2022-11-14T10:47:55;100696.22;;;11.81;58.51
40490;BME280;26196;52.302;10.572;2022-11-14T10:51:58;100705.78;;;11.83;57.91
40490;BME280;26196;52.302;10.572;2022-11-14T10:56:00;100715.31;;;11.86;58.23
40490;BME280;26196;52.302;10.572;2022-11-14T11:00:00;100710.03;;;11.88;58.30
40490;BME280;26196;52.302;10.572;2022-11-14T11:04:48;100719.59;;;11.90;58.29
40490;BME280;26196;52.302;10.572;2022-11-14T11:08:48;100716.00;;;11.93;58.12
40490;BME280;26196;52.302;10.572;2022-11-14T11:13:11;100702.78;;;11.96;58.08
40490;BME280;26196;52.302;10.572;2022-11-14T11:21:21;100668.59;;;11.99;58.38
40490;BME280;26196;52.302;10.572;2022-11-14T11:25:27;100671.22;;;11.99;57.94
40490;BME280;26196;52.302;10.572;2022-11-14T11:29:28;100680.72;;;12.03;58.14
40490;BME280;26196;52.302;10.572;2022-11-14T11:33:30;100678.97;;;12.03;57.76
40490;BME280;26196;52.302;10.572;2022-11-14T11:37:53;100673.63;;;12.07;57.76
40490;BME280;26196;52.302;10.572;2022-11-14T11:41:58;100692.88;;;12.07;57.70
40490;BME280;26196;52.302;10.572;2022-11-14T11:46:05;100686.66;;;12.10;58.03
40490;BME280;26196;52.302;10.572;2022-11-14T11:50:15;100687.41;;;12.13;58.17
40490;BME280;26196;52.302;10.572;2022-11-14T11:54:18;100685.63;;;12.15;57.92
40490;BME280;26196;52.302;10.572;2022-11-14T11:58:50;100692.53;;;12.18;57.93
40490;BME280;26196;52.302;10.572;2022-11-14T12:02:52;100694.28;;;12.17;58.17
40490;BME280;26196;52.302;10.572;2022-11-14T12:07:11;100695.91;;;12.21;58.07
40490;BME280;26196;52.302;10.572;2022-11-14T12:11:18;100688.84;;;12.23;58.12
40490;BME280;26196;52.302;10.572;2022-11-14T12:15:39;100682.66;;;12.26;58.20
40490;BME280;26196;52.302;10.572;2022-11-14T12:32:17;100661.81;;;12.48;59.51
40490;BME280;26196;52.302;10.572;2022-11-14T12:36:29;100660.81;;;12.52;58.19
40490;BME280;26196;52.302;10.572;2022-11-14T12:40:37;100653.94;;;12.48;59.03
40490;BME280;26196;52.302;10.572;2022-11-14T12:44:39;100663.53;;;12.49;58.80
40490;BME280;26196;52.302;10.572;2022-11-14T12:48:43;100657.38;;;12.50;58.13
40490;BME280;26196;52.302;10.572;2022-11-14T12:52:46;100667.78;;;12.53;59.06
40490;BME280;26196;52.302;10.572;2022-11-14T12:56:57;100658.09;;;12.55;58.99
40490;BME280;26196;52.302;10.572;2022-11-14T13:09:53;100644.81;;;12.60;58.43
40490;BME280;26196;52.302;10.572;2022-11-14T13:14:00;100635.97;;;12.62;58.77
40490;BME280;26196;52.302;10.572;2022-11-14T13:22:43;100631.47;;;12.66;58.44
40490;BME280;26196;52.302;10.572;2022-11-14T13:26:45;100624.41;;;12.68;58.51
40490;BME280;26196;52.302;10.572;2022-11-14T13:35:16;100626.88;;;12.73;59.20
40490;BME280;26196;52.302;10.572;2022-11-14T13:48:46;100613.47;;;12.80;59.34
40490;BME280;26196;52.302;10.572;2022-11-14T13:52:52;100607.31;;;12.81;59.01
40490;BME280;26196;52.302;10.572;2022-11-14T14:09:49;100588.75;;;12.86;58.66
40490;BME280;26196;52.302;10.572;2022-11-14T14:18:27;100579.75;;;12.93;59.16
40490;BME280;26196;52.302;10.572;2022-11-14T14:22:36;100581.47;;;12.94;58.52
40490;BME280;26196;52.302;10.572;2022-11-14T14:26:59;100570.84;;;12.97;58.58
40490;BME280;26196;52.302;10.572;2022-11-14T14:35:23;100561.97;;;13.00;59.18
40490;BME280;26196;52.302;10.572;2022-11-14T14:39:26;100560.22;;;13.00;58.73
40490;BME280;26196;52.302;10.572;2022-11-14T14:43:33;100561.94;;;13.01;58.25
40490;BME280;26196;52.302;10.572;2022-11-14T14:47:39;100567.97;;;13.03;58.55
40490;BME280;26196;52.302;10.572;2022-11-14T14:51:40;100561.81;;;13.04;58.57
40490;BME280;26196;52.302;10.572;2022-11-14T14:55:50;100563.53;;;13.05;58.19
40490;BME280;26196;52.302;10.572;2022-11-14T15:00:07;100544.25;;;13.06;58.64
40490;BME280;26196;52.302;10.572;2022-11-14T15:04:12;100541.81;;;13.24;59.53
40490;BME280;26196;52.302;10.572;2022-11-14T15:08:14;100539.31;;;13.21;59.34
40490;BME280;26196;52.302;10.572;2022-11-14T15:12:15;100532.34;;;13.20;58.82
40490;BME280;26196;52.302;10.572;2022-11-14T15:16:16;100528.88;;;13.19;59.04
40490;BME280;26196;52.302;10.572;2022-11-14T15:20:24;100534.97;;;13.20;59.27
40490;BME280;26196;52.302;10.572;2022-11-14T15:24:24;100525.31;;;13.20;59.15
40490;BME280;26196;52.302;10.572;2022-11-14T15:28:26;100524.47;;;13.20;58.92
40490;BME280;26196;52.302;10.572;2022-11-14T15:32:27;100526.16;;;13.21;59.10
40490;BME280;26196;52.302;10.572;2022-11-14T15:36:27;100520.00;;;13.22;58.31
40490;BME280;26196;52.302;10.572;2022-11-14T15:40:28;100520.88;;;13.22;58.67
40490;BME280;26196;52.302;10.572;2022-11-14T15:44:31;100529.59;;;13.23;58.65
40490;BME280;26196;52.302;10.572;2022-11-14T15:48:32;100524.22;;;13.26;58.64
40490;BME280;26196;52.302;10.572;2022-11-14T15:52:45;100522.53;;;13.25;58.50
40490;BME280;26196;52.302;10.572;2022-11-14T15:56:46;100531.16;;;13.28;58.71
40490;BME280;26196;52.302;10.572;2022-11-14T16:00:51;100524.13;;;13.29;58.01
40490;BME280;26196;52.302;10.572;2022-11-14T16:04:52;100520.59;;;13.30;58.23
40490;BME280;26196;52.302;10.572;2022-11-14T16:08:53;100504.03;;;13.28;57.96
40490;BME280;26196;52.302;10.572;2022-11-14T16:12:53;100503.09;;;13.29;57.64
40490;BME280;26196;52.302;10.572;2022-11-14T16:16:54;100509.22;;;13.29;58.19
40490;BME280;26196;52.302;10.572;2022-11-14T16:20:54;100495.16;;;13.30;57.86
40490;BME280;26196;52.302;10.572;2022-11-14T16:24:59;100489.16;;;13.27;58.05
40490;BME280;26196;52.302;10.572;2022-11-14T16:28:59;100485.63;;;13.28;57.86
40490;BME280;26196;52.302;10.572;2022-11-14T16:33:00;100479.44;;;13.29;58.04
40490;BME280;26196;52.302;10.572;2022-11-14T16:37:01;100479.53;;;13.27;57.41
40490;BME280;26196;52.302;10.572;2022-11-14T16:41:05;100483.03;;;13.26;57.94
40490;BME280;26196;52.302;10.572;2022-11-14T16:45:06;100487.41;;;13.27;57.45
40490;BME280;26196;52.302;10.572;2022-11-14T16:49:06;100487.41;;;13.26;57.78
40490;BME280;26196;52.302;10.572;2022-11-14T16:53:08;100490.09;;;13.24;57.17
40490;BME280;26196;52.302;10.572;2022-11-14T16:57:08;100486.56;;;13.25;57.42
40490;BME280;26196;52.302;10.572;2022-11-14T17:01:13;100490.97;;;13.25;56.69
40490;BME280;26196;52.302;10.572;2022-11-14T17:05:15;100486.63;;;13.24;57.10
40490;BME280;26196;52.302;10.572;2022-11-14T17:09:15;100494.50;;;13.24;57.16
40490;BME280;26196;52.302;10.572;2022-11-14T17:13:16;100488.34;;;13.25;57.14
40490;BME280;26196;52.302;10.572;2022-11-14T17:17:16;100487.53;;;13.23;56.95
40490;BME280;26196;52.302;10.572;2022-11-14T17:21:16;100478.72;;;13.24;56.87
40490;BME280;26196;52.302;10.572;2022-11-14T17:25:17;100478.84;;;13.21;56.84
40490;BME280;26196;52.302;10.572;2022-11-14T17:29:17;100473.56;;;13.22;56.38
40490;BME280;26196;52.302;10.572;2022-11-14T17:33:18;100470.94;;;13.22;56.37
40490;BME280;26196;52.302;10.572;2022-11-14T17:37:18;100468.22;;;13.24;56.44
40490;BME280;26196;52.302;10.572;2022-11-14T17:41:19;100468.22;;;13.24;56.30
40490;BME280;26196;52.302;10.572;2022-11-14T17:45:19;100469.16;;;13.23;55.95
40490;BME280;26196;52.302;10.572;2022-11-14T17:49:20;100459.56;;;13.22;56.29
40490;BME280;26196;52.302;10.572;2022-11-14T17:53:20;100466.53;;;13.23;56.04
40490;BME280;26196;52.302;10.572;2022-11-14T17:57:21;100465.59;;;13.24;55.94
40490;BME280;26196;52.302;10.572;2022-11-14T18:01:23;100464.81;;;13.22;55.77
40490;BME280;26196;52.302;10.572;2022-11-14T18:05:23;100458.69;;;13.21;55.56
40490;BME280;26196;52.302;10.572;2022-11-14T18:09:23;100467.44;;;13.22;55.55
40490;BME280;26196;52.302;10.572;2022-11-14T18:13:25;100455.19;;;13.21;56.29
40490;BME280;26196;52.302;10.572;2022-11-14T18:17:26;100458.63;;;13.23;55.29
40490;BME280;26196;52.302;10.572;2022-11-14T18:21:26;100449.91;;;13.22;55.53
40490;BME280;26196;52.302;10.572;2022-11-14T18:25:27;100451.72;;;13.20;54.69
40490;BME280;26196;52.302;10.572;2022-11-14T18:29:28;100455.16;;;13.22;55.17
40490;BME280;26196;52.302;10.572;2022-11-14T18:33:29;100447.31;;;13.21;55.98
40490;BME280;26196;52.302;10.572;2022-11-14T18:37:30;100449.91;;;13.22;55.28
40490;BME280;26196;52.302;10.572;2022-11-14T18:41:31;100432.47;;;13.20;55.19
40490;BME280;26196;52.302;10.572;2022-11-14T18:45:33;100421.97;;;13.20;55.31
40490;BME280;26196;52.302;10.572;2022-11-14T18:49:34;100420.31;;;13.17;55.35
40490;BME280;26196;52.302;10.572;2022-11-14T18:53:35;100417.72;;;13.16;54.64
40490;BME280;26196;52.302;10.572;2022-11-14T18:57:35;100418.53;;;13.18;55.16
40490;BME280;26196;52.302;10.572;2022-11-14T19:01:36;100412.47;;;13.16;54.16
40490;BME280;26196;52.302;10.572;2022-11-14T19:05:36;100410.66;;;13.18;54.71
40490;BME280;26196;52.302;10.572;2022-11-14T19:09:37;100422.09;;;13.17;54.50
40490;BME280;26196;52.302;10.572;2022-11-14T19:13:38;100417.69;;;13.17;54.89
40490;BME280;26196;52.302;10.572;2022-11-14T19:17:38;100415.91;;;13.18;54.86
40490;BME280;26196;52.302;10.572;2022-11-14T19:21:39;100391.44;;;13.16;54.51
40490;BME280;26196;52.302;10.572;2022-11-14T19:25:40;100404.41;;;13.20;54.03
40490;BME280;26196;52.302;10.572;2022-11-14T19:29:40;100390.22;;;13.24;53.82
40490;BME280;26196;52.302;10.572;2022-11-14T19:33:41;100391.91;;;13.27;53.61
40490;BME280;26196;52.302;10.572;2022-11-14T19:37:41;100396.97;;;13.31;54.43
40490;BME280;26196;52.302;10.572;2022-11-14T19:41:42;100396.09;;;13.32;55.43
40490;BME280;26196;52.302;10.572;2022-11-14T19:45:42;100391.72;;;13.31;54.87
40490;BME280;26196;52.302;10.572;2022-11-14T19:49:42;100389.28;;;13.27;54.88
40490;BME280;26196;52.302;10.572;2022-11-14T19:53:44;100377.16;;;13.23;54.83
40490;BME280;26196;52.302;10.572;2022-11-14T19:57:45;100366.63;;;13.23;54.79
40490;BME280;26196;52.302;10.572;2022-11-14T20:01:45;100374.53;;;13.23;54.88
40490;BME280;26196;52.302;10.572;2022-11-14T20:05:45;100368.34;;;13.24;54.21
40490;BME280;26196;52.302;10.572;2022-11-14T20:09:46;100366.69;;;13.21;54.77
40490;BME280;26196;52.302;10.572;2022-11-14T20:13:46;100361.50;;;13.20;54.42
40490;BME280;26196;52.302;10.572;2022-11-14T20:17:46;100361.50;;;13.20;54.24
40490;BME280;26196;52.302;10.572;2022-11-14T20:21:47;100352.78;;;13.19;54.54
40490;BME280;26196;52.302;10.572;2022-11-14T20:25:51;100351.91;;;13.19;54.94
40490;BME280;26196;52.302;10.572;2022-11-14T20:29:52;100359.69;;;13.22;54.34
40490;BME280;26196;52.302;10.572;2022-11-14T20:33:53;100360.72;;;13.18;54.17
40490;BME280;26196;52.302;10.572;2022-11-14T20:37:54;100358.13;;;13.16;54.10
40490;BME280;26196;52.302;10.572;2022-11-14T20:41:54;100343.34;;;13.13;54.09
40490;BME280;26196;52.302;10.572;2022-11-14T20:46:00;100343.44;;;13.12;54.71
40490;BME280;26196;52.302;10.572;2022-11-14T20:50:01;100333.88;;;13.09;54.25
40490;BME280;26196;52.302;10.572;2022-11-14T20:54:02;100322.59;;;13.07;54.22
40490;BME280;26196;52.302;10.572;2022-11-14T20:58:02;100340.03;;;13.08;54.03
40490;BME280;26196;52.302;10.572;2022-11-14T21:02:03;100331.19;;;13.11;54.25
40490;BME280;26196;52.302;10.572;2022-11-14T21:06:04;100330.34;;;13.10;54.10
40490;BME280;26196;52.302;10.572;2022-11-14T21:10:06;100332.16;;;13.08;54.86
40490;BME280;26196;52.302;10.572;2022-11-14T21:14:25;100332.16;;;13.08;54.82
40490;BME280;26196;52.302;10.572;2022-11-14T21:18:26;100327.88;;;13.06;54.58
40490;BME280;26196;52.302;10.572;2022-11-14T21:22:26;100315.63;;;13.06;53.49
40490;BME280;26196;52.302;10.572;2022-11-14T21:26:29;100313.00;;;13.06;53.55
40490;BME280;26196;52.302;10.572;2022-11-14T21:30:30;100313.00;;;13.06;53.65
40490;BME280;26196;52.302;10.572;2022-11-14T21:34:31;100317.38;;;13.06;53.10
40490;BME280;26196;52.302;10.572;2022-11-14T21:38:33;100314.69;;;13.07;53.32
40490;BME280;26196;52.302;10.572;2022-11-14T21:42:33;100319.97;;;13.07;53.18
40490;BME280;26196;52.302;10.572;2022-11-14T21:46:34;100322.59;;;13.07;53.59
40490;BME280;26196;52.302;10.572;2022-11-14T21:50:34;100304.31;;;13.04;53.65
40490;BME280;26196;52.302;10.572;2022-11-14T21:54:34;100305.88;;;13.08;53.38
40490;BME280;26196;52.302;10.572;2022-11-14T21:58:36;100295.50;;;13.05;53.72
40490;BME280;26196;52.302;10.572;2022-11-14T22:02:36;100302.41;;;13.08;53.87
40490;BME280;26196;52.302;10.572;2022-11-14T22:06:56;100304.19;;;13.07;53.77
40490;BME280;26196;52.302;10.572;2022-11-14T22:11:00;100309.44;;;13.07;53.38